sensor_id;sensor_type;location;lat;lon;timestamp;P1;durP1;ratioP1;P2;durP2;ratioP2
82950;SDS011;72737;53.332;6.514;2024-02-21T00:00:36;5.72;;;1.48;;
82950;SDS011;72737;53.332;6.514;2024-02-21T00:03:03;6.50;;;1.90;;
82950;SDS011;72737;53.332;6.514;2024-02-21T00:05:29;5.35;;;1.63;;
82950;SDS011;72737;53.332;6.514;2024-02-21T00:07:55;6.18;;;1.95;;
82950;SDS011;72737;53.332;6.514;2024-02-21T00:10:21;7.55;;;1.75;;
82950;SDS011;72737;53.332;6.514;2024-02-21T00:12:46;7.05;;;1.70;;
82950;SDS011;72737;53.332;6.514;2024-02-21T00:15:11;5.80;;;1.42;;
82950;SDS011;72737;53.332;6.514;2024-02-21T00:17:38;6.72;;;1.40;;
82950;SDS011;72737;53.332;6.514;2024-02-21T00:20:04;5.13;;;1.40;;
82950;SDS011;72737;53.332;6.514;2024-02-21T00:22:30;4.10;;;1.33;;
82950;SDS011;72737;53.332;6.514;2024-02-21T00:24:59;5.93;;;1.75;;
82950;SDS011;72737;53.332;6.514;2024-02-21T00:27:24;6.53;;;1.70;;
82950;SDS011;72737;53.332;6.514;2024-02-21T00:29:50;6.63;;;1.50;;
82950;SDS011;72737;53.332;6.514;2024-02-21T00:32:15;5.45;;;1.48;;
82950;SDS011;72737;53.332;6.514;2024-02-21T00:34:41;6.35;;;1.67;;
82950;SDS011;72737;53.332;6.514;2024-02-21T00:37:06;6.03;;;1.48;;
82950;SDS011;72737;53.332;6.514;2024-02-21T00:39:32;6.40;;;1.60;;
82950;SDS011;72737;53.332;6.514;2024-02-21T00:41:57;5.45;;;1.40;;
82950;SDS011;72737;53.332;6.514;2024-02-21T00:44:22;7.07;;;1.70;;
82950;SDS011;72737;53.332;6.514;2024-02-21T00:46:48;7.57;;;1.90;;
82950;SDS011;72737;53.332;6.514;2024-02-21T00:49:13;5.43;;;1.45;;
82950;SDS011;72737;53.332;6.514;2024-02-21T00:51:38;7.85;;;1.45;;
82950;SDS011;72737;53.332;6.514;2024-02-21T00:54:04;7.53;;;1.60;;
82950;SDS011;72737;53.332;6.514;2024-02-21T00:56:29;7.65;;;1.70;;
82950;SDS011;72737;53.332;6.514;2024-02-21T00:58:56;6.75;;;1.30;;
82950;SDS011;72737;53.332;6.514;2024-02-21T01:01:25;5.72;;;1.55;;
82950;SDS011;72737;53.332;6.514;2024-02-21T01:03:51;7.68;;;1.58;;
82950;SDS011;72737;53.332;6.514;2024-02-21T01:06:18;6.80;;;1.58;;
82950;SDS011;72737;53.332;6.514;2024-02-21T01:08:45;7.72;;;1.65;;
82950;SDS011;72737;53.332;6.514;2024-02-21T01:11:11;6.10;;;1.40;;
82950;SDS011;72737;53.332;6.514;2024-02-21T01:13:37;7.07;;;1.60;;
82950;SDS011;72737;53.332;6.514;2024-02-21T01:16:02;5.90;;;1.33;;
82950;SDS011;72737;53.332;6.514;2024-02-21T01:18:28;7.30;;;1.38;;
82950;SDS011;72737;53.332;6.514;2024-02-21T01:20:53;5.55;;;1.33;;
82950;SDS011;72737;53.332;6.514;2024-02-21T01:23:19;5.85;;;1.63;;
82950;SDS011;72737;53.332;6.514;2024-02-21T01:25:44;5.90;;;1.40;;
82950;SDS011;72737;53.332;6.514;2024-02-21T01:28:10;7.07;;;1.60;;
82950;SDS011;72737;53.332;6.514;2024-02-21T01:30:35;7.47;;;1.45;;
82950;SDS011;72737;53.332;6.514;2024-02-21T01:33:00;6.95;;;1.38;;
82950;SDS011;72737;53.332;6.514;2024-02-21T01:35:26;5.55;;;1.63;;
82950;SDS011;72737;53.332;6.514;2024-02-21T01:37:51;7.32;;;1.60;;
82950;SDS011;72737;53.332;6.514;2024-02-21T01:40:17;6.35;;;1.52;;
82950;SDS011;72737;53.332;6.514;2024-02-21T01:42:42;5.35;;;1.25;;
82950;SDS011;72737;53.332;6.514;2024-02-21T01:45:08;8.05;;;1.70;;
82950;SDS011;72737;53.332;6.514;2024-02-21T01:47:34;7.30;;;1.70;;
82950;SDS011;72737;53.332;6.514;2024-02-21T01:52:27;6.78;;;1.50;;
82950;SDS011;72737;53.332;6.514;2024-02-21T01:54:54;6.22;;;1.50;;
82950;SDS011;72737;53.332;6.514;2024-02-21T01:57:20;5.95;;;1.55;;
82950;SDS011;72737;53.332;6.514;2024-02-21T01:59:45;6.45;;;1.27;;
82950;SDS011;72737;53.332;6.514;2024-02-21T02:02:11;6.80;;;1.60;;
82950;SDS011;72737;53.332;6.514;2024-02-21T02:04:37;8.18;;;1.85;;
82950;SDS011;72737;53.332;6.514;2024-02-21T02:07:03;4.60;;;1.40;;
82950;SDS011;72737;53.332;6.514;2024-02-21T02:09:32;6.80;;;1.55;;
82950;SDS011;72737;53.332;6.514;2024-02-21T02:11:58;6.75;;;1.45;;
82950;SDS011;72737;53.332;6.514;2024-02-21T02:14:24;4.90;;;1.45;;
82950;SDS011;72737;53.332;6.514;2024-02-21T02:16:50;6.70;;;1.50;;
82950;SDS011;72737;53.332;6.514;2024-02-21T02:19:15;5.50;;;1.20;;
82950;SDS011;72737;53.332;6.514;2024-02-21T02:21:42;5.63;;;1.40;;
82950;SDS011;72737;53.332;6.514;2024-02-21T02:24:18;7.05;;;1.40;;
82950;SDS011;72737;53.332;6.514;2024-02-21T02:26:45;5.45;;;1.15;;
82950;SDS011;72737;53.332;6.514;2024-02-21T02:29:11;5.82;;;1.90;;
82950;SDS011;72737;53.332;6.514;2024-02-21T02:31:36;5.90;;;1.35;;
82950;SDS011;72737;53.332;6.514;2024-02-21T02:36:29;6.30;;;1.53;;
82950;SDS011;72737;53.332;6.514;2024-02-21T02:38:56;6.97;;;2.00;;
82950;SDS011;72737;53.332;6.514;2024-02-21T02:41:22;4.43;;;1.52;;
82950;SDS011;72737;53.332;6.514;2024-02-21T02:43:47;5.75;;;1.65;;
82950;SDS011;72737;53.332;6.514;2024-02-21T02:46:12;5.65;;;1.45;;
82950;SDS011;72737;53.332;6.514;2024-02-21T02:48:38;5.05;;;1.40;;
82950;SDS011;72737;53.332;6.514;2024-02-21T02:51:03;4.78;;;1.38;;
82950;SDS011;72737;53.332;6.514;2024-02-21T02:53:29;5.47;;;1.40;;
82950;SDS011;72737;53.332;6.514;2024-02-21T02:55:54;7.05;;;1.73;;
82950;SDS011;72737;53.332;6.514;2024-02-21T02:58:20;4.45;;;1.30;;
82950;SDS011;72737;53.332;6.514;2024-02-21T03:00:46;6.93;;;1.42;;
82950;SDS011;72737;53.332;6.514;2024-02-21T03:03:11;5.15;;;1.48;;
82950;SDS011;72737;53.332;6.514;2024-02-21T03:05:37;6.35;;;1.30;;
82950;SDS011;72737;53.332;6.514;2024-02-21T03:08:02;6.50;;;1.30;;
82950;SDS011;72737;53.332;6.514;2024-02-21T03:10:32;7.15;;;1.45;;
82950;SDS011;72737;53.332;6.514;2024-02-21T03:12:57;6.70;;;1.80;;
82950;SDS011;72737;53.332;6.514;2024-02-21T03:15:23;6.40;;;1.88;;
82950;SDS011;72737;53.332;6.514;2024-02-21T03:17:49;6.50;;;1.60;;
82950;SDS011;72737;53.332;6.514;2024-02-21T03:20:14;4.55;;;1.42;;
82950;SDS011;72737;53.332;6.514;2024-02-21T03:22:40;8.50;;;1.67;;
82950;SDS011;72737;53.332;6.514;2024-02-21T03:25:06;5.15;;;1.30;;
82950;SDS011;72737;53.332;6.514;2024-02-21T03:27:33;7.43;;;1.60;;
82950;SDS011;72737;53.332;6.514;2024-02-21T03:29:58;5.70;;;1.58;;
82950;SDS011;72737;53.332;6.514;2024-02-21T03:32:23;6.50;;;1.58;;
82950;SDS011;72737;53.332;6.514;2024-02-21T03:34:49;5.75;;;1.45;;
82950;SDS011;72737;53.332;6.514;2024-02-21T03:37:14;4.97;;;1.33;;
82950;SDS011;72737;53.332;6.514;2024-02-21T03:39:40;4.90;;;1.40;;
82950;SDS011;72737;53.332;6.514;2024-02-21T03:42:06;6.15;;;1.50;;
82950;SDS011;72737;53.332;6.514;2024-02-21T03:44:31;7.30;;;1.40;;
82950;SDS011;72737;53.332;6.514;2024-02-21T03:46:57;7.28;;;1.52;;
82950;SDS011;72737;53.332;6.514;2024-02-21T03:49:26;6.60;;;1.65;;
82950;SDS011;72737;53.332;6.514;2024-02-21T03:51:51;7.18;;;1.52;;
82950;SDS011;72737;53.332;6.514;2024-02-21T03:54:17;5.45;;;1.40;;
82950;SDS011;72737;53.332;6.514;2024-02-21T03:56:43;7.57;;;1.75;;
82950;SDS011;72737;53.332;6.514;2024-02-21T03:59:08;7.68;;;2.00;;
82950;SDS011;72737;53.332;6.514;2024-02-21T04:01:34;6.68;;;1.50;;
82950;SDS011;72737;53.332;6.514;2024-02-21T04:04:00;7.63;;;2.08;;
82950;SDS011;72737;53.332;6.514;2024-02-21T04:06:26;6.78;;;1.75;;
82950;SDS011;72737;53.332;6.514;2024-02-21T04:08:52;6.90;;;1.95;;
82950;SDS011;72737;53.332;6.514;2024-02-21T04:11:17;6.13;;;1.63;;
82950;SDS011;72737;53.332;6.514;2024-02-21T04:13:44;7.40;;;1.85;;
82950;SDS011;72737;53.332;6.514;2024-02-21T04:16:10;7.38;;;1.60;;
82950;SDS011;72737;53.332;6.514;2024-02-21T04:18:35;8.05;;;1.65;;
82950;SDS011;72737;53.332;6.514;2024-02-21T04:21:01;7.18;;;1.95;;
82950;SDS011;72737;53.332;6.514;2024-02-21T04:23:26;7.72;;;1.70;;
82950;SDS011;72737;53.332;6.514;2024-02-21T04:25:52;6.25;;;1.60;;
82950;SDS011;72737;53.332;6.514;2024-02-21T04:28:17;8.18;;;2.05;;
82950;SDS011;72737;53.332;6.514;2024-02-21T04:30:43;7.40;;;1.83;;
82950;SDS011;72737;53.332;6.514;2024-02-21T04:33:08;8.73;;;1.90;;
82950;SDS011;72737;53.332;6.514;2024-02-21T04:35:35;9.15;;;2.10;;
82950;SDS011;72737;53.332;6.514;2024-02-21T04:38:01;7.85;;;1.90;;
82950;SDS011;72737;53.332;6.514;2024-02-21T04:40:27;7.05;;;1.50;;
82950;SDS011;72737;53.332;6.514;2024-02-21T04:42:53;10.27;;;2.10;;
82950;SDS011;72737;53.332;6.514;2024-02-21T04:45:19;7.25;;;1.95;;
82950;SDS011;72737;53.332;6.514;2024-02-21T04:47:44;7.43;;;1.50;;
82950;SDS011;72737;53.332;6.514;2024-02-21T04:50:10;6.53;;;1.63;;
82950;SDS011;72737;53.332;6.514;2024-02-21T04:52:35;9.70;;;1.70;;
82950;SDS011;72737;53.332;6.514;2024-02-21T04:55:00;5.25;;;1.52;;
82950;SDS011;72737;53.332;6.514;2024-02-21T04:57:26;9.48;;;2.00;;
82950;SDS011;72737;53.332;6.514;2024-02-21T04:59:52;7.32;;;1.77;;
82950;SDS011;72737;53.332;6.514;2024-02-21T05:02:17;7.22;;;1.90;;
82950;SDS011;72737;53.332;6.514;2024-02-21T05:04:44;9.13;;;2.05;;
82950;SDS011;72737;53.332;6.514;2024-02-21T05:07:10;5.88;;;1.60;;
82950;SDS011;72737;53.332;6.514;2024-02-21T05:09:37;7.15;;;1.70;;
82950;SDS011;72737;53.332;6.514;2024-02-21T05:12:02;7.57;;;1.88;;
82950;SDS011;72737;53.332;6.514;2024-02-21T05:14:28;7.25;;;1.73;;
82950;SDS011;72737;53.332;6.514;2024-02-21T05:16:54;8.02;;;1.77;;
82950;SDS011;72737;53.332;6.514;2024-02-21T05:19:19;6.38;;;1.60;;
82950;SDS011;72737;53.332;6.514;2024-02-21T05:21:45;7.70;;;2.05;;
82950;SDS011;72737;53.332;6.514;2024-02-21T05:24:10;7.70;;;1.88;;
82950;SDS011;72737;53.332;6.514;2024-02-21T05:26:36;6.82;;;1.60;;
82950;SDS011;72737;53.332;6.514;2024-02-21T05:29:01;7.15;;;1.73;;
82950;SDS011;72737;53.332;6.514;2024-02-21T05:31:27;7.10;;;1.80;;
82950;SDS011;72737;53.332;6.514;2024-02-21T05:34:28;7.63;;;1.80;;
82950;SDS011;72737;53.332;6.514;2024-02-21T05:36:54;6.88;;;1.65;;
82950;SDS011;72737;53.332;6.514;2024-02-21T05:39:19;8.57;;;1.65;;
82950;SDS011;72737;53.332;6.514;2024-02-21T05:41:47;8.60;;;1.90;;
82950;SDS011;72737;53.332;6.514;2024-02-21T05:44:13;9.18;;;1.80;;
82950;SDS011;72737;53.332;6.514;2024-02-21T05:46:38;7.07;;;1.80;;
82950;SDS011;72737;53.332;6.514;2024-02-21T05:49:03;8.07;;;1.70;;
82950;SDS011;72737;53.332;6.514;2024-02-21T05:51:33;7.07;;;1.48;;
82950;SDS011;72737;53.332;6.514;2024-02-21T05:53:59;6.93;;;1.80;;
82950;SDS011;72737;53.332;6.514;2024-02-21T05:56:24;5.63;;;1.63;;
82950;SDS011;72737;53.332;6.514;2024-02-21T05:58:50;7.05;;;1.60;;
82950;SDS011;72737;53.332;6.514;2024-02-21T06:01:15;6.43;;;1.67;;
82950;SDS011;72737;53.332;6.514;2024-02-21T06:03:41;6.28;;;1.55;;
82950;SDS011;72737;53.332;6.514;2024-02-21T06:06:06;6.45;;;1.70;;
82950;SDS011;72737;53.332;6.514;2024-02-21T06:08:32;9.32;;;2.05;;
82950;SDS011;72737;53.332;6.514;2024-02-21T06:10:57;8.27;;;1.80;;
82950;SDS011;72737;53.332;6.514;2024-02-21T06:13:25;8.50;;;2.08;;
82950;SDS011;72737;53.332;6.514;2024-02-21T06:15:52;6.65;;;1.50;;
82950;SDS011;72737;53.332;6.514;2024-02-21T06:18:18;7.18;;;1.60;;
82950;SDS011;72737;53.332;6.514;2024-02-21T06:20:45;6.30;;;1.45;;
82950;SDS011;72737;53.332;6.514;2024-02-21T06:23:11;6.45;;;1.75;;
82950;SDS011;72737;53.332;6.514;2024-02-21T06:25:37;6.80;;;1.70;;
82950;SDS011;72737;53.332;6.514;2024-02-21T06:28:03;6.70;;;1.60;;
82950;SDS011;72737;53.332;6.514;2024-02-21T06:30:29;5.97;;;1.70;;
82950;SDS011;72737;53.332;6.514;2024-02-21T06:32:54;8.43;;;1.80;;
82950;SDS011;72737;53.332;6.514;2024-02-21T06:35:24;7.80;;;1.70;;
82950;SDS011;72737;53.332;6.514;2024-02-21T06:37:50;6.60;;;1.42;;
82950;SDS011;72737;53.332;6.514;2024-02-21T06:40:23;10.00;;;2.08;;
82950;SDS011;72737;53.332;6.514;2024-02-21T06:42:49;10.20;;;2.08;;
82950;SDS011;72737;53.332;6.514;2024-02-21T06:45:15;12.15;;;2.53;;
82950;SDS011;72737;53.332;6.514;2024-02-21T06:47:42;11.55;;;2.20;;
82950;SDS011;72737;53.332;6.514;2024-02-21T06:50:08;14.65;;;2.72;;
82950;SDS011;72737;53.332;6.514;2024-02-21T06:52:36;10.90;;;2.50;;
82950;SDS011;72737;53.332;6.514;2024-02-21T06:55:01;13.30;;;2.50;;
82950;SDS011;72737;53.332;6.514;2024-02-21T06:57:28;12.98;;;2.58;;
82950;SDS011;72737;53.332;6.514;2024-02-21T06:59:54;10.70;;;2.50;;
82950;SDS011;72737;53.332;6.514;2024-02-21T07:02:21;14.15;;;2.75;;
82950;SDS011;72737;53.332;6.514;2024-02-21T07:04:46;11.63;;;2.72;;
82950;SDS011;72737;53.332;6.514;2024-02-21T07:07:12;10.95;;;2.55;;
82950;SDS011;72737;53.332;6.514;2024-02-21T07:09:38;12.60;;;2.72;;
82950;SDS011;72737;53.332;6.514;2024-02-21T07:12:03;12.75;;;3.03;;
82950;SDS011;72737;53.332;6.514;2024-02-21T07:14:29;13.40;;;3.30;;
82950;SDS011;72737;53.332;6.514;2024-02-21T07:16:58;15.98;;;3.45;;
82950;SDS011;72737;53.332;6.514;2024-02-21T07:19:23;12.38;;;2.97;;
82950;SDS011;72737;53.332;6.514;2024-02-21T07:21:48;12.27;;;2.92;;
82950;SDS011;72737;53.332;6.514;2024-02-21T07:24:15;19.15;;;3.80;;
82950;SDS011;72737;53.332;6.514;2024-02-21T07:26:43;16.75;;;3.33;;
82950;SDS011;72737;53.332;6.514;2024-02-21T07:29:09;14.85;;;3.78;;
82950;SDS011;72737;53.332;6.514;2024-02-21T07:31:42;19.65;;;3.67;;
82950;SDS011;72737;53.332;6.514;2024-02-21T07:34:08;18.88;;;3.50;;
82950;SDS011;72737;53.332;6.514;2024-02-21T07:36:35;13.25;;;3.30;;
82950;SDS011;72737;53.332;6.514;2024-02-21T07:39:02;14.57;;;3.90;;
82950;SDS011;72737;53.332;6.514;2024-02-21T07:41:28;15.13;;;3.75;;
82950;SDS011;72737;53.332;6.514;2024-02-21T07:43:55;14.45;;;3.50;;
82950;SDS011;72737;53.332;6.514;2024-02-21T07:46:21;14.57;;;4.20;;
82950;SDS011;72737;53.332;6.514;2024-02-21T07:48:46;22.77;;;6.95;;
82950;SDS011;72737;53.332;6.514;2024-02-21T07:51:12;25.40;;;11.40;;
82950;SDS011;72737;53.332;6.514;2024-02-21T07:53:40;35.33;;;16.40;;
82950;SDS011;72737;53.332;6.514;2024-02-21T07:56:11;30.33;;;14.57;;
82950;SDS011;72737;53.332;6.514;2024-02-21T07:58:37;32.60;;;13.85;;
82950;SDS011;72737;53.332;6.514;2024-02-21T08:01:02;26.95;;;11.52;;
82950;SDS011;72737;53.332;6.514;2024-02-21T08:03:28;23.30;;;9.73;;
82950;SDS011;72737;53.332;6.514;2024-02-21T08:05:53;23.58;;;9.38;;
82950;SDS011;72737;53.332;6.514;2024-02-21T08:08:18;24.02;;;8.48;;
82950;SDS011;72737;53.332;6.514;2024-02-21T08:10:46;25.63;;;8.93;;
82950;SDS011;72737;53.332;6.514;2024-02-21T08:13:11;21.13;;;7.25;;
82950;SDS011;72737;53.332;6.514;2024-02-21T08:15:37;21.35;;;7.85;;
82950;SDS011;72737;53.332;6.514;2024-02-21T08:18:04;21.65;;;7.80;;
82950;SDS011;72737;53.332;6.514;2024-02-21T08:20:30;20.35;;;7.13;;
82950;SDS011;72737;53.332;6.514;2024-02-21T08:22:55;24.50;;;7.15;;
82950;SDS011;72737;53.332;6.514;2024-02-21T08:25:21;17.85;;;6.63;;
82950;SDS011;72737;53.332;6.514;2024-02-21T08:27:46;22.15;;;7.10;;
82950;SDS011;72737;53.332;6.514;2024-02-21T08:30:11;20.05;;;6.57;;
82950;SDS011;72737;53.332;6.514;2024-02-21T08:32:37;19.52;;;6.10;;
82950;SDS011;72737;53.332;6.514;2024-02-21T08:35:03;18.67;;;6.53;;
82950;SDS011;72737;53.332;6.514;2024-02-21T08:37:30;15.43;;;5.07;;
82950;SDS011;72737;53.332;6.514;2024-02-21T08:39:55;19.13;;;6.22;;
82950;SDS011;72737;53.332;6.514;2024-02-21T08:42:21;20.58;;;5.30;;
82950;SDS011;72737;53.332;6.514;2024-02-21T08:44:46;14.18;;;4.90;;
82950;SDS011;72737;53.332;6.514;2024-02-21T08:47:13;14.93;;;4.90;;
82950;SDS011;72737;53.332;6.514;2024-02-21T08:49:38;19.65;;;5.25;;
82950;SDS011;72737;53.332;6.514;2024-02-21T08:52:04;21.27;;;5.40;;
82950;SDS011;72737;53.332;6.514;2024-02-21T08:54:30;17.40;;;5.00;;
82950;SDS011;72737;53.332;6.514;2024-02-21T08:56:57;17.75;;;5.00;;
82950;SDS011;72737;53.332;6.514;2024-02-21T08:59:23;14.07;;;4.20;;
82950;SDS011;72737;53.332;6.514;2024-02-21T09:01:48;19.48;;;3.88;;
82950;SDS011;72737;53.332;6.514;2024-02-21T09:04:14;16.05;;;4.32;;
82950;SDS011;72737;53.332;6.514;2024-02-21T09:06:40;14.15;;;4.15;;
82950;SDS011;72737;53.332;6.514;2024-02-21T09:09:10;13.52;;;4.47;;
82950;SDS011;72737;53.332;6.514;2024-02-21T09:11:35;14.15;;;3.97;;
82950;SDS011;72737;53.332;6.514;2024-02-21T09:14:02;15.43;;;3.83;;
82950;SDS011;72737;53.332;6.514;2024-02-21T09:16:30;15.93;;;4.68;;
82950;SDS011;72737;53.332;6.514;2024-02-21T09:18:57;17.70;;;4.60;;
82950;SDS011;72737;53.332;6.514;2024-02-21T09:21:22;15.90;;;4.35;;
82950;SDS011;72737;53.332;6.514;2024-02-21T09:23:58;13.80;;;4.32;;
82950;SDS011;72737;53.332;6.514;2024-02-21T09:26:24;14.52;;;4.28;;
82950;SDS011;72737;53.332;6.514;2024-02-21T09:28:50;15.23;;;4.30;;
82950;SDS011;72737;53.332;6.514;2024-02-21T09:31:16;15.75;;;4.40;;
82950;SDS011;72737;53.332;6.514;2024-02-21T09:33:41;16.70;;;4.28;;
82950;SDS011;72737;53.332;6.514;2024-02-21T09:36:07;16.38;;;4.70;;
82950;SDS011;72737;53.332;6.514;2024-02-21T09:38:32;16.08;;;4.45;;
82950;SDS011;72737;53.332;6.514;2024-02-21T09:44:15;15.25;;;4.90;;
82950;SDS011;72737;53.332;6.514;2024-02-21T09:46:46;20.60;;;5.47;;
82950;SDS011;72737;53.332;6.514;2024-02-21T09:49:31;16.67;;;4.18;;
82950;SDS011;72737;53.332;6.514;2024-02-21T09:51:59;16.95;;;4.85;;
82950;SDS011;72737;53.332;6.514;2024-02-21T09:54:28;18.83;;;4.80;;
82950;SDS011;72737;53.332;6.514;2024-02-21T09:57:12;14.48;;;4.57;;
82950;SDS011;72737;53.332;6.514;2024-02-21T09:59:55;16.02;;;4.95;;
82950;SDS011;72737;53.332;6.514;2024-02-21T10:02:21;13.85;;;4.70;;
82950;SDS011;72737;53.332;6.514;2024-02-21T10:04:49;14.90;;;5.03;;
82950;SDS011;72737;53.332;6.514;2024-02-21T10:07:14;15.70;;;4.57;;
82950;SDS011;72737;53.332;6.514;2024-02-21T10:09:40;14.60;;;4.13;;
82950;SDS011;72737;53.332;6.514;2024-02-21T10:12:10;16.13;;;4.40;;
82950;SDS011;72737;53.332;6.514;2024-02-21T10:14:37;14.77;;;4.25;;
82950;SDS011;72737;53.332;6.514;2024-02-21T10:17:03;13.45;;;4.63;;
82950;SDS011;72737;53.332;6.514;2024-02-21T10:19:35;14.55;;;4.22;;
82950;SDS011;72737;53.332;6.514;2024-02-21T10:22:04;16.23;;;5.07;;
82950;SDS011;72737;53.332;6.514;2024-02-21T10:24:32;14.10;;;4.57;;
82950;SDS011;72737;53.332;6.514;2024-02-21T10:27:03;13.50;;;5.20;;
82950;SDS011;72737;53.332;6.514;2024-02-21T10:29:32;12.95;;;4.75;;
82950;SDS011;72737;53.332;6.514;2024-02-21T10:34:34;11.68;;;4.60;;
82950;SDS011;72737;53.332;6.514;2024-02-21T10:37:04;14.13;;;4.65;;
82950;SDS011;72737;53.332;6.514;2024-02-21T10:39:34;14.38;;;4.72;;
82950;SDS011;72737;53.332;6.514;2024-02-21T10:42:03;13.18;;;4.60;;
82950;SDS011;72737;53.332;6.514;2024-02-21T10:44:30;13.02;;;4.00;;
82950;SDS011;72737;53.332;6.514;2024-02-21T10:46:59;14.38;;;4.68;;
82950;SDS011;72737;53.332;6.514;2024-02-21T10:49:25;13.27;;;4.70;;
82950;SDS011;72737;53.332;6.514;2024-02-21T10:51:55;12.35;;;4.53;;
82950;SDS011;72737;53.332;6.514;2024-02-21T10:55:03;11.23;;;4.00;;
82950;SDS011;72737;53.332;6.514;2024-02-21T10:57:31;11.95;;;3.90;;
82950;SDS011;72737;53.332;6.514;2024-02-21T11:02:23;11.30;;;3.80;;
82950;SDS011;72737;53.332;6.514;2024-02-21T11:04:49;12.18;;;4.28;;
82950;SDS011;72737;53.332;6.514;2024-02-21T11:07:18;10.73;;;4.03;;
82950;SDS011;72737;53.332;6.514;2024-02-21T11:09:50;10.30;;;4.15;;
82950;SDS011;72737;53.332;6.514;2024-02-21T11:12:19;12.15;;;4.25;;
82950;SDS011;72737;53.332;6.514;2024-02-21T11:14:46;11.75;;;4.13;;
82950;SDS011;72737;53.332;6.514;2024-02-21T11:17:19;11.75;;;4.57;;
82950;SDS011;72737;53.332;6.514;2024-02-21T11:22:17;11.90;;;4.27;;
82950;SDS011;72737;53.332;6.514;2024-02-21T11:24:43;8.65;;;3.38;;
82950;SDS011;72737;53.332;6.514;2024-02-21T11:29:53;10.93;;;4.20;;
82950;SDS011;72737;53.332;6.514;2024-02-21T11:32:20;9.75;;;4.03;;
82950;SDS011;72737;53.332;6.514;2024-02-21T11:35:05;9.25;;;4.22;;
82950;SDS011;72737;53.332;6.514;2024-02-21T11:37:34;11.35;;;4.40;;
82950;SDS011;72737;53.332;6.514;2024-02-21T11:40:03;10.55;;;4.40;;
82950;SDS011;72737;53.332;6.514;2024-02-21T11:42:31;9.52;;;3.90;;
82950;SDS011;72737;53.332;6.514;2024-02-21T11:44:57;8.98;;;4.43;;
82950;SDS011;72737;53.332;6.514;2024-02-21T11:47:23;9.30;;;3.85;;
82950;SDS011;72737;53.332;6.514;2024-02-21T11:49:49;9.60;;;4.10;;
82950;SDS011;72737;53.332;6.514;2024-02-21T11:52:18;9.20;;;4.10;;
82950;SDS011;72737;53.332;6.514;2024-02-21T11:54:47;8.15;;;3.53;;
82950;SDS011;72737;53.332;6.514;2024-02-21T11:57:13;11.20;;;4.32;;
82950;SDS011;72737;53.332;6.514;2024-02-21T11:59:39;10.80;;;4.18;;
82950;SDS011;72737;53.332;6.514;2024-02-21T12:02:05;10.27;;;4.18;;
82950;SDS011;72737;53.332;6.514;2024-02-21T12:04:32;9.48;;;4.05;;
82950;SDS011;72737;53.332;6.514;2024-02-21T12:06:58;9.13;;;3.92;;
82950;SDS011;72737;53.332;6.514;2024-02-21T12:09:25;9.10;;;4.10;;
82950;SDS011;72737;53.332;6.514;2024-02-21T12:12:03;9.98;;;4.38;;
82950;SDS011;72737;53.332;6.514;2024-02-21T12:14:31;12.65;;;4.53;;
82950;SDS011;72737;53.332;6.514;2024-02-21T12:16:57;10.27;;;4.45;;
82950;SDS011;72737;53.332;6.514;2024-02-21T12:19:24;10.45;;;4.63;;
82950;SDS011;72737;53.332;6.514;2024-02-21T12:21:49;8.93;;;4.10;;
82950;SDS011;72737;53.332;6.514;2024-02-21T12:24:21;9.05;;;4.40;;
82950;SDS011;72737;53.332;6.514;2024-02-21T12:26:48;10.30;;;4.32;;
82950;SDS011;72737;53.332;6.514;2024-02-21T12:29:18;8.88;;;4.40;;
82950;SDS011;72737;53.332;6.514;2024-02-21T12:31:45;10.10;;;4.85;;
82950;SDS011;72737;53.332;6.514;2024-02-21T12:34:10;8.68;;;4.00;;
82950;SDS011;72737;53.332;6.514;2024-02-21T12:36:40;10.02;;;4.68;;
82950;SDS011;72737;53.332;6.514;2024-02-21T12:39:10;9.00;;;4.05;;
82950;SDS011;72737;53.332;6.514;2024-02-21T12:41:36;8.52;;;4.15;;
82950;SDS011;72737;53.332;6.514;2024-02-21T12:44:06;8.38;;;4.28;;
82950;SDS011;72737;53.332;6.514;2024-02-21T12:46:32;9.85;;;4.40;;
82950;SDS011;72737;53.332;6.514;2024-02-21T12:49:01;8.93;;;3.88;;
82950;SDS011;72737;53.332;6.514;2024-02-21T12:51:26;8.13;;;4.20;;
82950;SDS011;72737;53.332;6.514;2024-02-21T12:53:52;8.15;;;4.30;;
82950;SDS011;72737;53.332;6.514;2024-02-21T12:56:17;8.32;;;3.97;;
82950;SDS011;72737;53.332;6.514;2024-02-21T12:59:00;8.60;;;4.35;;
82950;SDS011;72737;53.332;6.514;2024-02-21T13:01:25;9.13;;;4.13;;
82950;SDS011;72737;53.332;6.514;2024-02-21T13:03:51;8.88;;;4.38;;
82950;SDS011;72737;53.332;6.514;2024-02-21T13:06:17;9.32;;;4.25;;
82950;SDS011;72737;53.332;6.514;2024-02-21T13:08:44;7.78;;;4.20;;
82950;SDS011;72737;53.332;6.514;2024-02-21T13:11:10;7.40;;;4.32;;
82950;SDS011;72737;53.332;6.514;2024-02-21T13:13:37;8.48;;;4.57;;
82950;SDS011;72737;53.332;6.514;2024-02-21T13:16:03;8.82;;;4.20;;
82950;SDS011;72737;53.332;6.514;2024-02-21T13:18:29;7.82;;;4.30;;
82950;SDS011;72737;53.332;6.514;2024-02-21T13:20:55;8.70;;;4.18;;
82950;SDS011;72737;53.332;6.514;2024-02-21T13:23:21;8.02;;;3.60;;
82950;SDS011;72737;53.332;6.514;2024-02-21T13:25:46;8.73;;;3.70;;
82950;SDS011;72737;53.332;6.514;2024-02-21T13:28:12;9.18;;;3.88;;
82950;SDS011;72737;53.332;6.514;2024-02-21T13:30:38;7.10;;;3.38;;
82950;SDS011;72737;53.332;6.514;2024-02-21T13:33:05;8.27;;;3.60;;
82950;SDS011;72737;53.332;6.514;2024-02-21T13:35:32;8.30;;;3.83;;
82950;SDS011;72737;53.332;6.514;2024-02-21T13:37:57;8.65;;;3.38;;
82950;SDS011;72737;53.332;6.514;2024-02-21T13:40:22;9.75;;;3.65;;
82950;SDS011;72737;53.332;6.514;2024-02-21T13:42:48;9.45;;;4.07;;
82950;SDS011;72737;53.332;6.514;2024-02-21T13:45:14;8.23;;;3.80;;
82950;SDS011;72737;53.332;6.514;2024-02-21T13:47:40;6.45;;;3.08;;
82950;SDS011;72737;53.332;6.514;2024-02-21T13:50:05;6.55;;;3.03;;
82950;SDS011;72737;53.332;6.514;2024-02-21T13:52:35;7.57;;;3.17;;
82950;SDS011;72737;53.332;6.514;2024-02-21T13:55:00;6.70;;;3.42;;
82950;SDS011;72737;53.332;6.514;2024-02-21T13:57:27;7.43;;;3.40;;
82950;SDS011;72737;53.332;6.514;2024-02-21T13:59:52;6.55;;;3.08;;
82950;SDS011;72737;53.332;6.514;2024-02-21T14:02:18;7.50;;;3.30;;
82950;SDS011;72737;53.332;6.514;2024-02-21T14:04:43;8.15;;;3.40;;
82950;SDS011;72737;53.332;6.514;2024-02-21T14:07:08;6.88;;;3.00;;
82950;SDS011;72737;53.332;6.514;2024-02-21T14:09:34;7.72;;;3.00;;
82950;SDS011;72737;53.332;6.514;2024-02-21T14:11:59;6.13;;;3.05;;
82950;SDS011;72737;53.332;6.514;2024-02-21T14:14:25;8.43;;;3.05;;
82950;SDS011;72737;53.332;6.514;2024-02-21T14:16:50;7.10;;;3.35;;
82950;SDS011;72737;53.332;6.514;2024-02-21T14:19:16;7.30;;;2.83;;
82950;SDS011;72737;53.332;6.514;2024-02-21T14:21:42;6.72;;;3.00;;
82950;SDS011;72737;53.332;6.514;2024-02-21T14:24:08;7.00;;;3.03;;
82950;SDS011;72737;53.332;6.514;2024-02-21T14:26:33;7.45;;;3.00;;
82950;SDS011;72737;53.332;6.514;2024-02-21T14:28:59;7.07;;;2.92;;
82950;SDS011;72737;53.332;6.514;2024-02-21T14:31:25;7.05;;;2.75;;
82950;SDS011;72737;53.332;6.514;2024-02-21T14:33:50;7.25;;;2.90;;
82950;SDS011;72737;53.332;6.514;2024-02-21T14:36:16;6.82;;;2.88;;
82950;SDS011;72737;53.332;6.514;2024-02-21T14:38:42;6.68;;;2.80;;
82950;SDS011;72737;53.332;6.514;2024-02-21T14:41:08;5.68;;;2.70;;
82950;SDS011;72737;53.332;6.514;2024-02-21T14:43:34;7.05;;;3.05;;
82950;SDS011;72737;53.332;6.514;2024-02-21T14:46:00;8.40;;;2.95;;
82950;SDS011;72737;53.332;6.514;2024-02-21T14:48:27;6.20;;;2.50;;
82950;SDS011;72737;53.332;6.514;2024-02-21T14:50:54;6.75;;;2.58;;
82950;SDS011;72737;53.332;6.514;2024-02-21T14:53:19;6.20;;;2.78;;
82950;SDS011;72737;53.332;6.514;2024-02-21T14:55:44;5.60;;;2.60;;
82950;SDS011;72737;53.332;6.514;2024-02-21T14:58:10;6.95;;;2.78;;